Souris, North Dakota
Current Conditions -  °F | °C
As of 7:58 AM on Friday 31 Oct 2014 (Local Time) from KMIB Reporting Station
Clear Clear  
Wind Chill:   Ceiling: Unl
Heat Index: 18°   Visibility: 10mi
Dew Point: 16°   Wind: 13mph
Humidity: 93%   Direction: 150°SSE
Pressure: 30.46"   Gusts: NA
Location:  48.91°N, 100.68°W
Report Text: KMIB 311258Z AUTO 15011KT 10SM CLR M08/M09 A3046 RMK AO2 SLP354 T10791089 $
Loading
Personal Weather Stations






























Interactive Weather Map
Tropical Storm Tracking
New forecast layout! Learn more

10-Day Weather Forecast

Advertisements
Track Severe Weather on mobile